Time;durP1;ratioP1;P1;durP2;ratioP2;P2;SDS_P1;SDS_P2;PMS_P1;PMS_P2;Temp;Humidity;BMP_temperature;BMP_pressure;BME280_temperature;BME280_humidity;BME280_pressure;Samples;Min_cycle;Max_cycle;Signal;HPM_P1;HPM_P2
2021/07/25 00:01:27;;;;;;;12.75;7.35;;;17.90;99.90;;;;;;6111774;28;20923;-84
2021/07/25 00:04:29;;;;;;;9.43;6.70;;;17.80;99.90;;;;;;6118620;28;20031;-84
2021/07/25 00:07:30;;;;;;;9.63;6.85;;;17.80;99.90;;;;;;6150601;28;20050;-85
2021/07/25 00:10:31;;;;;;;9.07;6.93;;;17.90;99.90;;;;;;6134758;28;20041;-85
2021/07/25 00:13:36;;;;;;;8.80;7.60;;;17.90;99.90;;;;;;6150489;28;20027;-84
2021/07/25 00:16:37;;;;;;;8.82;6.97;;;18.00;99.90;;;;;;6151273;28;20035;-84
2021/07/25 00:19:37;;;;;;;9.52;7.65;;;18.00;99.90;;;;;;6127486;28;20042;-84
2021/07/25 00:22:38;;;;;;;16.27;7.35;;;18.20;99.90;;;;;;6139439;28;20042;-85
2021/07/25 00:25:42;;;;;;;9.98;7.95;;;18.00;99.90;;;;;;6150554;28;20064;-84
2021/07/25 00:28:43;;;;;;;8.52;7.07;;;18.00;99.90;;;;;;6127435;28;20385;-84
2021/07/25 00:31:43;;;;;;;8.85;6.75;;;18.10;99.90;;;;;;6126881;28;20358;-84
2021/07/25 00:34:44;;;;;;;11.27;8.00;;;18.30;99.90;;;;;;6126506;28;20036;-84
2021/07/25 00:37:47;;;;;;;8.40;7.55;;;18.00;99.90;;;;;;6125668;28;20027;-85
2021/07/25 00:40:48;;;;;;;9.77;6.60;;;17.90;99.90;;;;;;6126700;28;20028;-84
2021/07/25 00:43:49;;;;;;;11.10;7.43;;;18.00;99.90;;;;;;6096901;28;20062;-84
2021/07/25 00:46:58;;;;;;;14.65;7.18;;;18.00;99.90;;;;;;6110502;28;20026;-84
2021/07/25 00:49:58;;;;;;;9.50;8.02;;;17.90;99.90;;;;;;6126902;28;20035;-84
2021/07/25 00:52:59;;;;;;;8.18;7.38;;;18.00;99.90;;;;;;6137160;28;20050;-84
2021/07/25 00:56:00;;;;;;;7.35;6.05;;;17.90;99.90;;;;;;6133343;28;20033;-84
2021/07/25 00:59:00;;;;;;;9.05;6.95;;;17.90;99.90;;;;;;6129152;28;20058;-84
2021/07/25 01:02:01;;;;;;;7.68;6.35;;;17.80;99.90;;;;;;6113874;28;20032;-84
2021/07/25 01:05:06;;;;;;;7.38;6.57;;;17.80;99.90;;;;;;6110472;28;20473;-83
2021/07/25 01:08:16;;;;;;;7.72;6.22;;;17.80;99.90;;;;;;6126473;28;20487;-85
2021/07/25 01:11:17;;;;;;;10.93;6.25;;;17.80;99.90;;;;;;6110761;28;20066;-85
2021/07/25 01:14:19;;;;;;;7.40;6.18;;;17.80;99.90;;;;;;6125985;28;20023;-84
2021/07/25 01:17:29;;;;;;;7.95;6.68;;;17.80;99.90;;;;;;6110520;28;20120;-85
2021/07/25 01:20:29;;;;;;;6.70;6.00;;;17.80;99.90;;;;;;6143846;28;20545;-84
2021/07/25 01:23:30;;;;;;;7.90;6.50;;;17.80;99.90;;;;;;6110061;28;20042;-84
2021/07/25 01:26:31;;;;;;;9.18;6.47;;;17.90;99.90;;;;;;6125795;28;20381;-85
2021/07/25 01:29:31;;;;;;;8.40;6.75;;;17.80;99.90;;;;;;6126085;28;20043;-84
2021/07/25 01:32:32;;;;;;;6.97;6.28;;;17.80;99.90;;;;;;6125305;28;20104;-84
2021/07/25 01:35:33;;;;;;;7.68;6.13;;;17.80;99.90;;;;;;6110058;28;20023;-83
2021/07/25 01:38:33;;;;;;;6.47;5.45;;;17.80;99.90;;;;;;6116145;28;20122;-84
2021/07/25 01:41:42;;;;;;;6.50;5.40;;;17.70;99.90;;;;;;6125971;28;20035;-84
2021/07/25 01:44:58;;;;;;;8.10;5.57;;;17.70;99.90;;;;;;6126043;28;20102;-84
2021/07/25 01:47:59;;;;;;;6.20;5.60;;;17.70;99.90;;;;;;6110177;28;20093;-85
2021/07/25 01:50:59;;;;;;;8.52;5.85;;;17.70;99.90;;;;;;6128867;28;20027;-84
2021/07/25 01:54:00;;;;;;;6.18;4.88;;;17.60;99.90;;;;;;6145805;28;20038;-85
2021/07/25 01:57:01;;;;;;;5.93;5.30;;;17.60;99.90;;;;;;6136797;28;20354;-84
2021/07/25 02:00:03;;;;;;;7.55;5.85;;;17.50;99.90;;;;;;6168626;28;20038;-85
2021/07/25 02:03:04;;;;;;;8.80;5.85;;;17.50;99.90;;;;;;6133419;28;20039;-84
2021/07/25 02:06:04;;;;;;;8.15;5.25;;;17.50;99.90;;;;;;6129234;28;20027;-84
2021/07/25 02:09:05;;;;;;;5.50;4.90;;;17.50;99.90;;;;;;6129264;28;20714;-84
2021/07/25 02:12:07;;;;;;;10.30;5.40;;;17.50;99.90;;;;;;6117015;28;20023;-84
2021/07/25 02:15:08;;;;;;;6.28;5.18;;;17.50;99.90;;;;;;6153140;28;20031;-84
2021/07/25 02:18:08;;;;;;;7.22;5.22;;;17.50;99.90;;;;;;6151231;28;20046;-85
2021/07/25 02:21:09;;;;;;;5.82;5.15;;;17.70;99.90;;;;;;6113257;28;20031;-85
2021/07/25 02:24:09;;;;;;;7.85;5.50;;;16.90;99.90;;;;;;6133535;28;20042;-85
2021/07/25 02:27:10;;;;;;;7.70;4.82;;;17.40;99.90;;;;;;6135872;28;20203;-85
2021/07/25 02:30:11;;;;;;;8.65;5.78;;;17.40;99.90;;;;;;6115086;28;20027;-85
2021/07/25 02:33:11;;;;;;;6.22;4.45;;;17.40;99.90;;;;;;6128861;28;20019;-84
2021/07/25 02:36:12;;;;;;;7.32;4.95;;;17.50;99.90;;;;;;6113354;28;20050;-84
2021/07/25 02:39:13;;;;;;;8.88;5.43;;;17.40;99.90;;;;;;6111824;28;20035;-85
2021/07/25 02:42:13;;;;;;;8.95;5.38;;;17.40;99.90;;;;;;6112921;28;20051;-85
2021/07/25 02:45:14;;;;;;;6.32;5.22;;;17.30;99.90;;;;;;6112920;28;20070;-85
2021/07/25 02:48:14;;;;;;;6.93;4.90;;;17.30;99.90;;;;;;6113263;28;20046;-84
2021/07/25 02:51:15;;;;;;;8.95;5.28;;;17.30;99.90;;;;;;6128611;28;20114;-85
2021/07/25 02:54:16;;;;;;;6.13;4.70;;;17.20;99.90;;;;;;6125034;28;20023;-85
2021/07/25 02:57:16;;;;;;;9.98;5.55;;;17.00;99.90;;;;;;6128535;28;20484;-84
2021/07/25 03:00:17;;;;;;;9.93;5.57;;;17.10;99.90;;;;;;6141263;28;20472;-84
2021/07/25 03:03:18;;;;;;;8.60;5.55;;;17.00;99.90;;;;;;6115620;28;20035;-84
2021/07/25 03:06:18;;;;;;;7.78;4.78;;;17.00;99.90;;;;;;6151375;28;20053;-84
2021/07/25 03:09:19;;;;;;;5.40;4.88;;;16.90;99.90;;;;;;6119247;28;20122;-84
2021/07/25 03:12:19;;;;;;;7.10;5.20;;;16.90;99.90;;;;;;6127830;28;20034;-83
2021/07/25 03:15:20;;;;;;;5.65;5.05;;;17.00;99.90;;;;;;6133275;28;20031;-84
2021/07/25 03:18:21;;;;;;;6.43;5.20;;;17.00;99.90;;;;;;6144184;28;20043;-84
2021/07/25 03:21:21;;;;;;;8.27;5.82;;;16.90;99.90;;;;;;6124833;28;20031;-85
2021/07/25 03:24:22;;;;;;;7.68;4.78;;;16.90;99.90;;;;;;6128165;28;20035;-83
2021/07/25 03:27:23;;;;;;;5.63;4.93;;;16.90;99.90;;;;;;6112274;28;20116;-84
2021/07/25 03:30:23;;;;;;;7.50;4.80;;;16.70;99.90;;;;;;6112306;28;20038;-84
2021/07/25 03:33:24;;;;;;;7.60;5.10;;;16.70;99.90;;;;;;6111714;28;20118;-84
2021/07/25 03:36:25;;;;;;;5.78;5.18;;;16.70;99.90;;;;;;6127584;28;20031;-85
2021/07/25 03:39:26;;;;;;;8.85;5.15;;;16.70;99.90;;;;;;6107955;28;20037;-84
2021/07/25 03:42:27;;;;;;;5.20;4.50;;;16.80;99.90;;;;;;6101962;28;20446;-84
2021/07/25 03:45:27;;;;;;;6.35;4.93;;;16.70;99.90;;;;;;6143212;28;20028;-84
2021/07/25 03:48:28;;;;;;;6.53;5.10;;;16.70;99.90;;;;;;6127651;28;20039;-85
2021/07/25 03:51:29;;;;;;;9.73;5.53;;;16.70;99.90;;;;;;6127794;28;20515;-84
2021/07/25 03:54:29;;;;;;;6.78;5.15;;;16.60;99.90;;;;;;6109152;28;20084;-85
2021/07/25 03:57:31;;;;;;;8.00;5.25;;;16.60;99.90;;;;;;6112089;28;20058;-84
2021/07/25 04:00:32;;;;;;;5.65;5.15;;;16.50;99.90;;;;;;6096666;28;20523;-85
2021/07/25 04:03:32;;;;;;;9.98;5.72;;;16.50;99.90;;;;;;6134779;28;20035;-85
2021/07/25 04:06:33;;;;;;;11.68;5.75;;;16.50;99.90;;;;;;6151016;28;20023;-85
2021/07/25 04:09:34;;;;;;;6.18;5.40;;;16.50;99.90;;;;;;6143587;28;20072;-84
2021/07/25 04:12:34;;;;;;;9.40;5.45;;;16.50;99.90;;;;;;6129361;28;20453;-84
2021/07/25 04:15:39;;;;;;;6.88;5.68;;;16.50;99.90;;;;;;6143605;28;20038;-84
2021/07/25 04:18:39;;;;;;;6.80;5.38;;;16.50;99.90;;;;;;6127042;28;20117;-85
2021/07/25 04:21:40;;;;;;;5.30;4.60;;;16.60;99.90;;;;;;6130180;28;20042;-85
2021/07/25 04:24:40;;;;;;;5.25;4.75;;;16.60;99.90;;;;;;6150229;28;20030;-84
2021/07/25 04:27:41;;;;;;;7.82;5.03;;;16.60;99.90;;;;;;6163155;28;20089;-84
2021/07/25 04:30:42;;;;;;;7.40;4.20;;;16.70;99.90;;;;;;6118180;28;20591;-84
2021/07/25 04:33:44;;;;;;;5.88;4.45;;;16.80;99.90;;;;;;6121930;28;20055;-84
2021/07/25 04:36:45;;;;;;;5.30;4.80;;;16.80;99.90;;;;;;6113251;28;20035;-85
2021/07/25 04:39:46;;;;;;;5.85;4.60;;;17.00;99.90;;;;;;6126461;28;20051;-83
2021/07/25 04:42:54;;;;;;;5.45;4.57;;;17.00;99.90;;;;;;6126721;28;20511;-84
2021/07/25 04:46:01;;;;;;;9.15;5.75;;;17.00;99.90;;;;;;6126560;28;20483;-85
2021/07/25 04:49:12;;;;;;;7.78;4.78;;;17.00;99.90;;;;;;6126881;28;20066;-84
2021/07/25 04:52:12;;;;;;;6.40;4.82;;;17.00;99.90;;;;;;6110734;28;20035;-84
2021/07/25 04:55:13;;;;;;;7.43;4.95;;;17.00;99.90;;;;;;6110887;28;20077;-84
2021/07/25 04:58:14;;;;;;;6.95;5.18;;;17.00;99.90;;;;;;6127618;28;20043;-83
2021/07/25 05:01:24;;;;;;;8.60;5.05;;;17.00;99.90;;;;;;6126114;28;20046;-83
2021/07/25 05:04:24;;;;;;;8.93;5.00;;;17.00;99.90;;;;;;6117527;28;20023;-81
2021/07/25 05:07:25;;;;;;;7.38;5.13;;;17.10;99.90;;;;;;6117099;28;20097;-83
2021/07/25 05:10:26;;;;;;;6.15;4.68;;;17.20;99.90;;;;;;6121480;28;20034;-84
2021/07/25 05:13:27;;;;;;;6.57;4.38;;;17.20;99.90;;;;;;6134126;28;20521;-83
2021/07/25 05:16:40;;;;;;;6.50;4.70;;;17.30;99.90;;;;;;6149352;28;20076;-84
2021/07/25 05:19:49;;;;;;;7.85;4.75;;;17.30;99.90;;;;;;6126394;28;20043;-84
2021/07/25 05:22:56;;;;;;;6.18;4.57;;;17.10;99.90;;;;;;6126542;28;20366;-84
2021/07/25 05:25:57;;;;;;;9.82;5.53;;;17.20;99.90;;;;;;6143536;28;20038;-83
2021/07/25 05:28:57;;;;;;;6.93;4.72;;;17.10;99.90;;;;;;6109726;28;20055;-83
2021/07/25 05:31:58;;;;;;;6.35;4.78;;;17.10;99.90;;;;;;6124184;28;20481;-83
2021/07/25 05:34:59;;;;;;;6.90;4.97;;;17.10;99.90;;;;;;6140482;28;20023;-84
2021/07/25 05:38:00;;;;;;;5.20;4.65;;;17.20;99.90;;;;;;6123023;28;20035;-86
2021/07/25 05:41:00;;;;;;;6.85;4.50;;;17.20;99.90;;;;;;6094408;28;20854;-84
2021/07/25 05:44:01;;;;;;;7.45;4.60;;;17.20;99.90;;;;;;6125330;28;20023;-83
2021/07/25 05:47:01;;;;;;;7.20;4.60;;;17.20;99.90;;;;;;6141501;28;20035;-83
2021/07/25 05:50:02;;;;;;;7.13;4.93;;;17.30;99.90;;;;;;6122580;28;20073;-85
2021/07/25 05:53:03;;;;;;;8.00;4.78;;;17.10;99.90;;;;;;6129335;28;20377;-83
2021/07/25 05:56:04;;;;;;;9.98;5.30;;;17.20;99.90;;;;;;6121621;28;20027;-85
2021/07/25 05:59:06;;;;;;;5.50;4.35;;;17.30;99.90;;;;;;6123105;28;20027;-82
2021/07/25 06:02:07;;;;;;;5.80;4.65;;;17.40;99.90;;;;;;6125927;28;20138;-83
2021/07/25 06:05:08;;;;;;;9.73;4.75;;;17.50;99.90;;;;;;6109318;28;20019;-83
2021/07/25 06:08:08;;;;;;;5.72;4.82;;;17.50;99.90;;;;;;6109684;28;20082;-84
2021/07/25 06:11:09;;;;;;;5.50;4.97;;;17.60;99.90;;;;;;6124850;28;20366;-83
2021/07/25 06:14:09;;;;;;;7.90;5.40;;;17.60;99.90;;;;;;6125724;28;20069;-83
2021/07/25 06:17:10;;;;;;;9.25;5.43;;;17.70;99.90;;;;;;6134386;28;20039;-83
2021/07/25 06:20:11;;;;;;;8.20;6.38;;;17.70;99.90;;;;;;6151345;28;20035;-83
2021/07/25 06:23:13;;;;;;;11.82;8.27;;;18.10;99.90;;;;;;6134885;28;20047;-84
2021/07/25 06:26:13;;;;;;;9.07;6.97;;;18.10;99.90;;;;;;6136239;28;20031;-83
2021/07/25 06:29:14;;;;;;;7.47;6.10;;;18.30;99.90;;;;;;6109900;28;20047;-83
2021/07/25 06:32:14;;;;;;;6.80;5.15;;;18.60;99.90;;;;;;6136687;28;20038;-83
2021/07/25 06:35:15;;;;;;;6.03;5.38;;;18.80;99.90;;;;;;6125469;28;20026;-83
2021/07/25 06:38:17;;;;;;;6.38;5.25;;;19.00;99.90;;;;;;6140015;28;20066;-84
2021/07/25 06:41:18;;;;;;;6.32;5.03;;;19.30;99.90;;;;;;6115143;28;20031;-85
2021/07/25 06:44:19;;;;;;;5.60;5.10;;;19.50;99.90;;;;;;6125450;28;20087;-85
2021/07/25 06:47:19;;;;;;;5.45;4.82;;;19.80;99.90;;;;;;6113158;28;20042;-88
2021/07/25 06:50:21;;;;;;;5.07;4.57;;;20.00;99.90;;;;;;6107497;28;20382;-86
2021/07/25 06:53:23;;;;;;;5.22;4.50;;;20.30;99.90;;;;;;6128548;28;20050;-84
2021/07/25 06:56:23;;;;;;;6.50;4.65;;;20.60;99.90;;;;;;6119308;28;20036;-84
2021/07/25 06:59:24;;;;;;;5.47;4.95;;;20.70;99.90;;;;;;6151882;28;20491;-84
2021/07/25 07:02:24;;;;;;;8.63;4.53;;;20.60;99.90;;;;;;6148622;28;20527;-84
2021/07/25 07:05:26;;;;;;;6.32;4.80;;;20.30;99.90;;;;;;6116075;28;20119;-86
2021/07/25 07:08:27;;;;;;;7.60;5.13;;;19.80;99.90;;;;;;6119577;28;20085;-83
2021/07/25 07:11:27;;;;;;;5.30;4.45;;;19.90;99.90;;;;;;6128226;28;20035;-85
2021/07/25 07:14:28;;;;;;;8.38;5.05;;;19.90;99.90;;;;;;6144067;28;20027;-82
2021/07/25 07:17:28;;;;;;;5.93;4.60;;;19.80;99.90;;;;;;6155997;28;20708;-83
2021/07/25 07:20:29;;;;;;;5.30;4.63;;;19.90;99.90;;;;;;6128832;28;20031;-81
2021/07/25 07:23:30;;;;;;;8.80;4.93;;;19.90;99.90;;;;;;6128279;28;20084;-80
2021/07/25 07:26:30;;;;;;;5.35;4.55;;;19.80;99.90;;;;;;6143711;28;20035;-85
2021/07/25 07:29:31;;;;;;;8.70;4.70;;;19.70;99.90;;;;;;6128175;28;20085;-81
2021/07/25 07:32:31;;;;;;;5.93;5.13;;;19.60;99.90;;;;;;6145524;28;20038;-80
2021/07/25 07:35:32;;;;;;;6.75;4.43;;;19.30;99.90;;;;;;6164922;28;20139;-82
2021/07/25 07:38:32;;;;;;;5.30;4.78;;;19.30;99.90;;;;;;6143684;28;20023;-82
2021/07/25 07:41:33;;;;;;;6.75;5.10;;;19.30;99.90;;;;;;6113085;28;20039;-81
2021/07/25 07:44:34;;;;;;;8.15;5.22;;;19.30;99.90;;;;;;6131535;28;20063;-80
2021/07/25 07:47:34;;;;;;;6.60;5.18;;;19.30;99.90;;;;;;6153340;28;20039;-81
2021/07/25 07:50:35;;;;;;;5.95;5.20;;;19.30;99.90;;;;;;6147348;28;20050;-85
2021/07/25 07:53:36;;;;;;;8.55;5.53;;;19.40;99.90;;;;;;6146959;28;20031;-83
2021/07/25 07:56:36;;;;;;;8.85;6.18;;;19.40;99.90;;;;;;6129343;28;20030;-86
2021/07/25 07:59:37;;;;;;;4.97;4.47;;;19.40;99.90;;;;;;6117666;28;20038;-83
2021/07/25 08:02:38;;;;;;;7.80;5.38;;;19.50;99.90;;;;;;6119369;28;20136;-81
2021/07/25 08:05:39;;;;;;;6.33;4.90;;;19.80;99.90;;;;;;6162029;28;20061;-80
2021/07/25 08:08:39;;;;;;;6.07;5.35;;;19.70;99.90;;;;;;6130783;28;20417;-81
2021/07/25 08:11:43;;;;;;;7.13;5.93;;;19.70;99.90;;;;;;6132357;28;20050;-84
2021/07/25 08:14:44;;;;;;;7.90;6.00;;;;;;;;;;6130342;28;20026;-88
2021/07/25 08:17:45;;;;;;;7.20;5.60;;;19.80;99.90;;;;;;6137778;28;20034;-84
2021/07/25 08:20:45;;;;;;;7.93;5.47;;;19.80;99.90;;;;;;6118031;28;20461;-84
2021/07/25 08:23:46;;;;;;;6.05;5.45;;;19.80;99.90;;;;;;6111003;28;20419;-83
2021/07/25 08:26:47;;;;;;;7.10;5.55;;;19.90;99.90;;;;;;6123255;28;20086;-81
2021/07/25 08:29:47;;;;;;;7.28;5.00;;;21.40;99.90;;;;;;6145019;28;20054;-84
2021/07/25 08:32:48;;;;;;;5.50;4.78;;;19.90;99.90;;;;;;6122543;28;20039;-80
2021/07/25 08:35:49;;;;;;;5.90;5.03;;;;;;;;;;6145913;28;20050;-86
2021/07/25 08:38:49;;;;;;;7.22;5.70;;;19.90;99.90;;;;;;6148052;28;20192;-80
2021/07/25 08:41:56;;;;;;;6.93;5.65;;;19.90;99.90;;;;;;6129240;28;20030;-83
2021/07/25 08:44:57;;;;;;;6.05;5.43;;;19.80;99.90;;;;;;6165182;28;20102;-79
2021/07/25 08:48:17;;;;;;;6.65;5.63;;;20.10;99.90;;;;;;6156863;28;20040;-82
2021/07/25 08:51:19;;;;;;;7.80;6.78;;;18.30;99.90;;;;;;6110155;28;20027;-90
2021/07/25 08:54:20;;;;;;;8.50;6.65;;;20.10;99.90;;;;;;6113487;28;20030;-84
2021/07/25 08:57:23;;;;;;;7.22;5.78;;;19.50;99.90;;;;;;6132080;28;20074;-83
2021/07/25 09:00:24;;;;;;;7.95;6.78;;;19.60;99.90;;;;;;6110834;28;20027;-85
2021/07/25 09:03:24;;;;;;;7.78;5.90;;;19.60;99.90;;;;;;6124905;28;20024;-86
2021/07/25 09:06:25;;;;;;;10.23;6.22;;;19.70;99.90;;;;;;6131020;28;20035;-85
2021/07/25 09:09:26;;;;;;;9.38;6.07;;;19.90;99.90;;;;;;6108081;28;20488;-85
2021/07/25 09:12:27;;;;;;;9.98;6.05;;;20.00;99.90;;;;;;6114544;28;20461;-86
2021/07/25 09:15:29;;;;;;;6.25;5.65;;;19.90;99.90;;;;;;6109304;28;20028;-84
2021/07/25 09:18:30;;;;;;;8.65;5.95;;;20.10;99.90;;;;;;6113450;28;20039;-86
2021/07/25 09:21:36;;;;;;;7.15;5.10;;;19.80;99.90;;;;;;6113136;28;20035;-83
2021/07/25 09:24:37;;;;;;;6.68;5.10;;;19.80;99.90;;;;;;6154607;28;20416;-84
2021/07/25 09:27:37;;;;;;;9.45;5.70;;;19.80;99.90;;;;;;6117178;28;20137;-83
2021/07/25 09:30:38;;;;;;;9.90;6.07;;;19.70;99.90;;;;;;6143468;28;20061;-82
2021/07/25 09:33:41;;;;;;;10.60;5.97;;;19.80;99.90;;;;;;6110379;28;20050;-82
2021/07/25 09:36:42;;;;;;;7.72;5.78;;;19.80;99.90;;;;;;6126737;28;20023;-81
2021/07/25 09:39:47;;;;;;;7.78;6.25;;;19.80;99.90;;;;;;6125958;28;20070;-81
2021/07/25 09:42:48;;;;;;;5.65;5.15;;;19.90;99.90;;;;;;6126484;28;20035;-78
2021/07/25 09:45:54;;;;;;;5.82;5.03;;;19.90;99.90;;;;;;6155325;28;20474;-79
2021/07/25 09:48:56;;;;;;;6.15;5.18;;;20.00;99.90;;;;;;6146147;28;20050;-78
2021/07/25 09:51:57;;;;;;;13.10;7.40;;;20.00;99.90;;;;;;6128974;28;20023;-78
2021/07/25 09:54:58;;;;;;;9.60;6.55;;;20.10;99.90;;;;;;6124654;28;20042;-78
2021/07/25 09:57:58;;;;;;;9.23;5.90;;;20.30;99.90;;;;;;6137313;28;20077;-77
2021/07/25 10:00:59;;;;;;;5.80;5.20;;;20.50;99.90;;;;;;6140727;28;20639;-83
2021/07/25 10:04:13;;;;;;;8.77;5.93;;;20.60;99.90;;;;;;6109708;28;20023;-84
2021/07/25 10:07:13;;;;;;;6.57;5.35;;;20.80;99.90;;;;;;6125715;28;20055;-85
2021/07/25 10:10:15;;;;;;;8.20;5.32;;;21.00;99.90;;;;;;6115875;28;20027;-78
2021/07/25 10:13:17;;;;;;;6.20;4.78;;;21.40;99.90;;;;;;6168279;28;20035;-79
2021/07/25 10:16:20;;;;;;;8.15;5.35;;;21.60;99.90;;;;;;6136420;28;20030;-89
2021/07/25 10:19:41;;;;;;;6.90;5.22;;;21.80;99.90;;;;;;6136016;28;20552;-91
2021/07/25 10:22:41;;;;;;;7.53;5.15;;;21.50;99.90;;;;;;6115128;28;20107;-88
2021/07/25 10:25:42;;;;;;;6.05;5.18;;;21.50;99.90;;;;;;6119650;28;20027;-82
2021/07/25 10:28:43;;;;;;;8.85;5.68;;;21.60;99.90;;;;;;6151463;28;20065;-79
2021/07/25 10:31:43;;;;;;;11.02;5.47;;;21.70;99.90;;;;;;6132209;28;20507;-88
2021/07/25 10:34:44;;;;;;;5.68;5.05;;;21.70;99.90;;;;;;6102098;28;20042;-81
2021/07/25 10:37:46;;;;;;;8.15;4.93;;;21.60;99.90;;;;;;6151165;28;20412;-85
2021/07/25 10:40:47;;;;;;;6.03;5.28;;;21.60;99.90;;;;;;6120631;28;20061;-81
2021/07/25 10:43:47;;;;;;;5.72;5.13;;;21.80;99.90;;;;;;6115529;28;20343;-84
2021/07/25 10:46:48;;;;;;;7.40;5.50;;;21.80;99.90;;;;;;6112702;28;20031;-80
2021/07/25 10:50:18;;;;;;;8.13;5.15;;;21.90;99.90;;;;;;6144447;28;20489;-82
2021/07/25 10:53:22;;;;;;;7.10;5.38;;;22.20;99.90;;;;;;6196761;28;20121;-87
2021/07/25 10:56:59;;;;;;;6.82;4.88;;;22.40;99.90;;;;;;6180987;28;20039;-82
2021/07/25 11:00:00;;;;;;;6.18;5.45;;;22.20;99.90;;;;;;6194551;28;20065;-86
2021/07/25 11:03:02;;;;;;;6.20;5.60;;;22.10;99.90;;;;;;6201916;28;20040;-82
2021/07/25 11:06:07;;;;;;;6.38;5.55;;;21.90;99.90;;;;;;6200471;28;20041;-84
2021/07/25 11:09:07;;;;;;;6.80;5.57;;;21.90;99.90;;;;;;6196452;28;20117;-82
2021/07/25 11:12:08;;;;;;;6.60;5.18;;;22.10;99.90;;;;;;6177283;28;20125;-87
2021/07/25 11:15:08;;;;;;;7.13;6.13;;;21.80;99.90;;;;;;6214141;28;20045;-81
2021/07/25 11:18:12;;;;;;;11.35;6.40;;;21.90;99.90;;;;;;6178537;28;20062;-81
2021/07/25 11:21:18;;;;;;;6.43;5.70;;;21.80;99.90;;;;;;6200034;28;20041;-83
2021/07/25 11:24:26;;;;;;;6.47;4.78;;;22.00;99.90;;;;;;6208765;28;20042;-80
2021/07/25 11:27:45;;;;;;;6.40;5.40;;;22.60;99.90;;;;;;6199087;28;20065;-82
2021/07/25 11:30:48;;;;;;;5.78;5.20;;;23.10;99.90;;;;;;6133966;28;20120;-82
2021/07/25 11:33:52;;;;;;;7.00;5.70;;;23.60;99.90;;;;;;6145749;28;20118;-82
2021/07/25 11:36:54;;;;;;;6.38;4.90;;;22.90;99.90;;;;;;6127755;28;20031;-83
2021/07/25 11:39:55;;;;;;;7.43;5.90;;;;;;;;;;6128046;28;20061;-88
2021/07/25 11:42:55;;;;;;;5.80;4.20;;;24.90;98.30;;;;;;6116990;28;20028;-82
2021/07/25 11:45:56;;;;;;;5.43;4.93;;;25.20;97.10;;;;;;6144290;28;20734;-82
2021/07/25 11:49:19;;;;;;;5.77;4.20;;;24.90;97.30;;;;;;6141405;28;20379;-80
2021/07/25 11:52:20;;;;;;;4.25;3.85;;;24.40;96.80;;;;;;6123769;28;20038;-82
2021/07/25 11:55:27;;;;;;;5.07;4.57;;;24.00;96.70;;;;;;6152469;28;20039;-86
2021/07/25 11:58:27;;;;;;;4.70;4.20;;;23.70;98.00;;;;;;6120395;28;20027;-84
2021/07/25 12:01:28;;;;;;;5.30;4.80;;;23.50;97.80;;;;;;6111533;28;20358;-83
2021/07/25 12:04:31;;;;;;;5.97;5.18;;;23.50;98.10;;;;;;6114388;28;20031;-82
2021/07/25 12:07:33;;;;;;;5.57;4.93;;;23.50;99.00;;;;;;6127462;28;20081;-81
2021/07/25 12:10:34;;;;;;;7.50;4.85;;;23.70;99.20;;;;;;6120614;28;20031;-82
2021/07/25 12:13:48;;;;;;;5.33;4.63;;;24.00;99.90;;;;;;6120517;28;20066;-81
2021/07/25 12:16:49;;;;;;;5.85;5.20;;;24.40;98.20;;;;;;6133879;28;20129;-82
2021/07/25 12:19:50;;;;;;;4.65;4.18;;;24.70;98.20;;;;;;6118601;28;20058;-84
2021/07/25 12:23:00;;;;;;;5.03;4.47;;;24.80;98.00;;;;;;6115689;28;20030;-82
2021/07/25 12:26:00;;;;;;;5.05;4.55;;;24.50;98.30;;;;;;6167936;28;20041;-81
2021/07/25 12:29:01;;;;;;;5.33;4.60;;;24.20;97.80;;;;;;6127311;28;20055;-82
2021/07/25 12:32:21;;;;;;;6.40;4.63;;;23.90;98.00;;;;;;6142308;28;20027;-80
2021/07/25 12:35:22;;;;;;;5.25;3.92;;;23.70;97.60;;;;;;6115788;28;20030;-80
2021/07/25 12:38:24;;;;;;;5.97;4.97;;;23.60;98.90;;;;;;6127455;28;20074;-80
2021/07/25 12:41:40;;;;;;;5.17;4.47;;;23.70;98.80;;;;;;6126513;28;20275;-79
2021/07/25 12:44:41;;;;;;;5.85;4.65;;;24.20;99.50;;;;;;6139496;28;20425;-80
2021/07/25 12:47:41;;;;;;;5.70;5.10;;;24.70;98.70;;;;;;6125823;28;20043;-86
2021/07/25 12:54:15;;;;;;;4.75;4.22;;;25.40;96.00;;;;;;6147209;28;20035;-82
2021/07/25 12:57:16;;;;;;;5.07;4.23;;;25.20;97.10;;;;;;6113514;28;20576;-81
2021/07/25 13:00:20;;;;;;;5.80;5.20;;;25.10;96.00;;;;;;6118977;28;20118;-80
2021/07/25 13:06:43;;;;;;;7.25;4.97;;;25.20;96.70;;;;;;6121176;28;20032;-85
2021/07/25 13:09:43;;;;;;;4.40;4.00;;;25.20;95.80;;;;;;6116019;28;20039;-89
2021/07/25 13:12:44;;;;;;;6.10;4.43;;;25.20;97.50;;;;;;6117702;28;20077;-83
2021/07/25 13:15:46;;;;;;;9.67;5.40;;;25.20;96.00;;;;;;6116097;28;20036;-82
2021/07/25 13:18:49;;;;;;;5.85;4.78;;;25.30;97.20;;;;;;6126375;28;20080;-79
2021/07/25 13:21:51;;;;;;;6.30;4.97;;;25.60;97.10;;;;;;6128397;28;20027;-81
2021/07/25 13:24:54;;;;;;;6.75;4.57;;;25.70;95.30;;;;;;6114504;28;20035;-80
2021/07/25 13:27:54;;;;;;;5.97;4.60;;;25.90;95.10;;;;;;6142851;28;20039;-83
2021/07/25 13:30:55;;;;;;;9.27;4.90;;;26.20;96.20;;;;;;6127010;28;20023;-82
2021/07/25 13:33:56;;;;;;;5.57;4.53;;;26.40;94.40;;;;;;6141792;28;20057;-79
2021/07/25 13:36:56;;;;;;;5.83;4.97;;;26.30;94.70;;;;;;6139828;28;20415;-81
2021/07/25 13:39:57;;;;;;;5.73;4.43;;;26.30;93.60;;;;;;6153794;28;20027;-78
2021/07/25 13:42:57;;;;;;;6.20;4.83;;;26.30;94.20;;;;;;6129647;28;20110;-80
2021/07/25 13:45:59;;;;;;;4.97;4.47;;;26.00;93.90;;;;;;6123200;28;20039;-81
2021/07/25 13:48:59;;;;;;;5.13;4.63;;;26.10;95.60;;;;;;6114433;28;20039;-80
2021/07/25 13:52:00;;;;;;;5.67;4.50;;;26.20;94.90;;;;;;6129647;28;20042;-80
2021/07/25 13:55:01;;;;;;;6.37;5.13;;;26.30;94.60;;;;;;6124969;28;20063;-83
2021/07/25 13:58:02;;;;;;;5.87;5.00;;;26.50;94.70;;;;;;6098929;28;20031;-85
2021/07/25 14:01:02;;;;;;;5.32;4.82;;;26.60;93.90;;;;;;6125930;28;20031;-83
2021/07/25 14:04:03;;;;;;;5.60;4.90;;;26.50;92.70;;;;;;6114358;28;20106;-86
2021/07/25 14:07:04;;;;;;;5.37;4.80;;;26.70;94.10;;;;;;6120927;28;20085;-86
2021/07/25 14:10:05;;;;;;;5.20;4.70;;;27.00;94.90;;;;;;6134429;28;20076;-86
2021/07/25 14:13:05;;;;;;;5.50;4.97;;;27.10;94.10;;;;;;6127816;28;20023;-86
2021/07/25 14:16:06;;;;;;;5.83;4.57;;;27.30;94.20;;;;;;6106420;28;20043;-86
2021/07/25 14:19:07;;;;;;;5.47;4.68;;;27.10;94.40;;;;;;6120400;28;20031;-85
2021/07/25 14:22:07;;;;;;;6.63;4.70;;;27.10;94.80;;;;;;6123052;28;20561;-85
2021/07/25 14:25:09;;;;;;;5.67;4.80;;;27.30;93.90;;;;;;6107886;28;20061;-91
2021/07/25 14:28:10;;;;;;;;;;;27.30;92.90;;;;;;6123798;28;20401;-92
2021/07/25 14:31:11;;;;;;;6.88;4.95;;;;;;;;;;6142460;28;19921;-90
2021/07/25 14:34:12;;;;;;;5.28;4.78;;;27.30;92.30;;;;;;6123926;28;20026;-93
2021/07/25 14:37:12;;;;;;;5.37;4.87;;;27.20;94.00;;;;;;6112449;28;20424;-89
2021/07/25 14:40:13;;;;;;;6.20;4.97;;;27.20;93.90;;;;;;6131242;28;20025;-91
2021/07/25 14:43:14;;;;;;;5.43;4.60;;;;;;;;;;6107400;28;20052;-91
2021/07/25 14:46:15;;;;;;;5.40;4.68;;;;;;;;;;6145929;28;20601;-92
2021/07/25 14:49:16;;;;;;;5.72;5.10;;;;;;;;;;6145515;28;20469;-91
2021/07/25 14:52:17;;;;;;;5.63;5.13;;;27.60;91.00;;;;;;6131037;28;20031;-92
2021/07/25 14:55:17;;;;;;;6.10;5.17;;;27.60;92.80;;;;;;6124554;28;20085;-90
2021/07/25 14:58:19;;;;;;;5.27;4.77;;;27.50;92.50;;;;;;6128212;28;20365;-91
2021/07/25 15:01:20;;;;;;;10.27;5.20;;;;;;;;;;6122551;28;20499;-91
2021/07/25 15:04:21;;;;;;;6.07;4.85;;;27.20;92.10;;;;;;6127054;28;20031;-91
2021/07/25 15:07:22;;;;;;;6.33;4.73;;;27.10;93.60;;;;;;6122240;28;20374;-91
2021/07/25 15:10:23;;;;;;;7.03;5.13;;;;;;;;;;6112761;28;20035;-93
2021/07/25 15:13:24;;;;;;;4.80;4.23;;;;;;;;;;6119137;28;20064;-89
2021/07/25 15:16:27;;;;;;;4.93;4.43;;;;;;;;;;6138719;28;20267;-89
2021/07/25 15:19:31;;;;;;;5.88;4.68;;;26.70;90.00;;;;;;6138754;28;20092;-89
2021/07/25 15:22:32;;;;;;;5.57;4.65;;;26.40;92.20;;;;;;6110321;28;20026;-90
2021/07/25 15:25:32;;;;;;;5.70;5.00;;;26.50;93.30;;;;;;6139669;28;20027;-90
2021/07/25 15:28:33;;;;;;;5.63;5.03;;;26.40;93.30;;;;;;6126767;28;20614;-86
2021/07/25 15:32:26;;;;;;;5.73;4.93;;;26.30;93.40;;;;;;6129898;28;20027;-88
2021/07/25 15:35:27;;;;;;;7.43;4.80;;;29.40;94.70;;;;;;6167985;28;20504;-86
2021/07/25 15:38:27;;;;;;;5.53;4.73;;;26.10;94.10;;;;;;6133681;28;20102;-87
2021/07/25 15:41:28;;;;;;;5.10;4.60;;;26.20;94.00;;;;;;6128155;28;20027;-84
2021/07/25 15:44:28;;;;;;;4.23;3.87;;;26.30;93.50;;;;;;6119189;28;20357;-83
2021/07/25 15:47:29;;;;;;;5.97;4.77;;;26.30;91.30;;;;;;6119455;28;20043;-85
2021/07/25 15:50:30;;;;;;;5.67;4.73;;;26.30;91.10;;;;;;6112136;28;20097;-84
2021/07/25 15:53:30;;;;;;;4.83;4.33;;;26.60;90.50;;;;;;6112516;28;20046;-85
2021/07/25 15:56:31;;;;;;;5.97;4.83;;;25.80;91.10;;;;;;6113116;28;20039;-86
2021/07/25 15:59:32;;;;;;;5.63;4.43;;;25.60;91.80;;;;;;6112091;28;20321;-85